createdAt,value
2022-12-13T00:00:30.441Z,1.60
2022-12-13T00:01:33.875Z,1.90
2022-12-13T00:02:37.383Z,2.15
2022-12-13T00:03:39.915Z,1.42
2022-12-13T00:04:50.412Z,1.75
2022-12-13T00:05:54.656Z,1.88
2022-12-13T00:06:58.067Z,1.70
2022-12-13T00:08:07.629Z,1.70
2022-12-13T00:09:13.232Z,1.77
2022-12-13T00:10:22.381Z,1.73
2022-12-13T00:11:26.092Z,1.65
2022-12-13T00:12:35.348Z,1.50
2022-12-13T00:13:38.751Z,1.60
2022-12-13T00:14:50.372Z,1.88
2022-12-13T00:15:56.641Z,1.98
2022-12-13T00:17:00.140Z,1.80
2022-12-13T00:18:02.704Z,1.73
2022-12-13T00:19:06.109Z,2.10
2022-12-13T00:20:15.382Z,1.55
2022-12-13T00:21:28.415Z,1.70
2022-12-13T00:22:31.074Z,1.48
2022-12-13T00:23:34.967Z,1.80
2022-12-13T00:24:44.424Z,1.70
2022-12-13T00:25:48.768Z,1.77
2022-12-13T00:26:58.382Z,1.73
2022-12-13T00:28:00.854Z,1.58
2022-12-13T00:29:04.972Z,1.73
2022-12-13T00:30:16.386Z,1.80
2022-12-13T00:31:56.243Z,2.22
2022-12-13T00:32:42.953Z,1.60
2022-12-13T00:33:45.514Z,1.75
2022-12-13T00:34:49.083Z,1.70
2022-12-13T00:35:58.433Z,1.67
2022-12-13T00:37:01.903Z,1.60
2022-12-13T00:38:04.372Z,1.92
2022-12-13T00:39:07.878Z,1.65
2022-12-13T00:40:11.340Z,1.65
2022-12-13T00:41:22.438Z,1.40
2022-12-13T00:42:25.852Z,2.00
2022-12-13T00:43:28.341Z,1.60
2022-12-13T00:44:32.533Z,1.60
2022-12-13T00:45:36.356Z,1.80
2022-12-13T00:46:46.371Z,1.58
2022-12-13T00:47:56.383Z,1.65
2022-12-13T00:48:59.652Z,1.60
2022-12-13T00:50:03.106Z,1.70
2022-12-13T00:51:07.181Z,1.48
2022-12-13T00:52:17.400Z,1.88
2022-12-13T00:53:19.860Z,1.73
2022-12-13T00:54:23.310Z,1.83
2022-12-13T00:55:25.780Z,2.05
2022-12-13T00:56:30.045Z,1.60
2022-12-13T00:57:40.353Z,1.67
2022-12-13T00:59:03.491Z,1.80
2022-12-13T01:00:08.051Z,1.73
2022-12-13T01:01:13.453Z,1.85
2022-12-13T01:02:30.416Z,2.08
2022-12-13T01:03:33.234Z,1.75
2022-12-13T01:04:36.635Z,1.80
2022-12-13T01:06:13.701Z,2.10
2022-12-13T01:07:02.411Z,1.83
2022-12-13T01:08:11.479Z,1.60
2022-12-13T01:09:18.316Z,1.65
2022-12-13T01:10:22.284Z,1.85
2022-12-13T01:11:24.758Z,1.60
2022-12-13T01:12:28.193Z,1.90
2022-12-13T01:13:38.396Z,1.80
2022-12-13T01:14:51.827Z,1.75
2022-12-13T01:15:59.258Z,1.58
2022-12-13T01:17:04.029Z,1.90
2022-12-13T01:18:06.575Z,1.70
2022-12-13T01:19:09.967Z,1.75
2022-12-13T01:20:19.532Z,1.75
2022-12-13T01:21:23.004Z,1.83
2022-12-13T01:22:26.502Z,1.88
2022-12-13T01:23:29.386Z,1.90
2022-12-13T01:24:33.226Z,1.77
2022-12-13T01:25:44.366Z,2.20
2022-12-13T01:26:47.857Z,1.88
2022-12-13T01:27:50.366Z,1.92
2022-12-13T01:28:53.805Z,2.00
2022-12-13T01:30:03.394Z,1.80
2022-12-13T01:31:09.871Z,1.90
2022-12-13T01:32:21.383Z,1.60
2022-12-13T01:33:24.256Z,1.88
2022-12-13T01:34:28.674Z,1.83
2022-12-13T01:35:31.186Z,1.75
2022-12-13T01:36:38.096Z,1.90
2022-12-13T01:37:47.438Z,1.70
2022-12-13T01:38:50.842Z,1.95
2022-12-13T01:39:53.323Z,1.75
2022-12-13T01:41:02.109Z,1.88
2022-12-13T01:42:26.365Z,1.88
2022-12-13T01:43:30.887Z,1.98
2022-12-13T01:44:52.752Z,1.60
2022-12-13T01:45:56.220Z,1.92
2022-12-13T01:46:58.692Z,1.60
2022-12-13T01:48:11.363Z,1.70
2022-12-13T01:49:19.828Z,1.50
2022-12-13T01:50:26.063Z,1.73
2022-12-13T01:51:31.575Z,1.70
2022-12-13T01:52:34.522Z,1.70
2022-12-13T01:53:46.383Z,1.83
2022-12-13T01:54:50.367Z,1.85
2022-12-13T01:56:02.372Z,1.40
2022-12-13T01:57:06.364Z,1.80
2022-12-13T01:58:09.890Z,1.65
2022-12-13T01:59:20.530Z,2.00
2022-12-13T02:00:23.202Z,1.73
2022-12-13T02:01:33.384Z,1.83
2022-12-13T02:02:36.810Z,1.95
2022-12-13T02:03:47.380Z,1.80
2022-12-13T02:04:54.512Z,2.10
2022-12-13T02:06:00.503Z,1.75
2022-12-13T02:07:04.164Z,1.80
2022-12-13T02:08:13.435Z,1.80
2022-12-13T02:09:17.412Z,1.70
2022-12-13T02:10:19.932Z,1.90
2022-12-13T02:11:23.681Z,1.88
2022-12-13T02:12:29.450Z,2.00
2022-12-13T02:13:40.508Z,1.73
2022-12-13T02:14:44.010Z,2.08
2022-12-13T02:15:55.729Z,1.50
2022-12-13T02:17:02.933Z,1.70
2022-12-13T02:18:13.679Z,1.88
2022-12-13T02:19:44.512Z,1.90
2022-12-13T02:20:58.435Z,1.90
2022-12-13T02:22:06.920Z,2.03
2022-12-13T02:23:28.108Z,1.95
2022-12-13T02:24:55.872Z,1.67
2022-12-13T02:26:06.742Z,1.90
2022-12-13T02:27:13.039Z,1.85
2022-12-13T02:28:31.421Z,1.77
2022-12-13T02:29:54.132Z,1.30
2022-12-13T02:31:08.470Z,1.90
2022-12-13T02:32:13.725Z,2.65
2022-12-13T02:33:34.081Z,1.88
2022-12-13T02:34:46.331Z,1.80
2022-12-13T02:35:53.209Z,2.03
2022-12-13T02:36:58.365Z,2.00
2022-12-13T02:38:06.062Z,1.75
2022-12-13T02:39:18.373Z,2.00
2022-12-13T02:40:36.621Z,1.98
2022-12-13T02:41:41.388Z,1.83
2022-12-13T02:42:46.990Z,1.85
2022-12-13T02:43:52.491Z,1.63
2022-12-13T02:45:18.651Z,2.00
2022-12-13T02:46:27.234Z,1.88
2022-12-13T02:47:37.406Z,1.90
2022-12-13T02:48:42.280Z,2.10
2022-12-13T02:49:47.083Z,1.95
2022-12-13T02:50:51.132Z,1.83
2022-12-13T02:51:53.708Z,1.90
2022-12-13T02:53:04.371Z,2.13
2022-12-13T02:54:07.835Z,1.80
2022-12-13T02:55:13.617Z,2.05
2022-12-13T02:56:17.303Z,1.65
2022-12-13T02:57:33.033Z,2.15
2022-12-13T02:58:44.420Z,1.90
2022-12-13T03:00:00.591Z,2.03
2022-12-13T03:01:28.106Z,1.90
2022-12-13T03:02:38.384Z,1.92
2022-12-13T03:03:55.383Z,2.00
2022-12-13T03:05:34.852Z,2.00
2022-12-13T03:06:44.336Z,1.80
2022-12-13T03:07:59.487Z,1.83
2022-12-13T03:09:11.863Z,2.28
2022-12-13T03:10:18.823Z,1.80
2022-12-13T03:11:23.141Z,1.77
2022-12-13T03:12:48.711Z,1.90
2022-12-13T03:14:00.344Z,2.00
2022-12-13T03:15:08.712Z,1.92
2022-12-13T03:16:26.487Z,2.03
2022-12-13T03:17:31.761Z,1.80
2022-12-13T03:18:37.313Z,2.45
2022-12-13T03:19:39.882Z,2.00
2022-12-13T03:20:47.600Z,1.80
2022-12-13T03:21:57.394Z,2.03
2022-12-13T03:23:01.132Z,2.17
2022-12-13T03:24:03.600Z,1.80
2022-12-13T03:25:07.262Z,2.15
2022-12-13T03:26:11.582Z,2.20
2022-12-13T03:27:21.342Z,1.92
2022-12-13T03:28:24.332Z,2.20
2022-12-13T03:29:27.788Z,2.00
2022-12-13T03:30:30.375Z,2.30
2022-12-13T03:31:33.948Z,2.13
2022-12-13T03:32:43.365Z,2.10
2022-12-13T03:33:48.552Z,1.75
2022-12-13T03:34:53.467Z,2.85
2022-12-13T03:36:04.708Z,2.17
2022-12-13T03:37:13.393Z,2.05
2022-12-13T03:38:21.881Z,2.22
2022-12-13T03:39:26.515Z,2.40
2022-12-13T03:40:29.380Z,2.00
2022-12-13T03:41:32.905Z,2.10
2022-12-13T03:42:42.429Z,2.20
2022-12-13T03:43:46.427Z,2.15
2022-12-13T03:44:49.871Z,2.00
2022-12-13T03:45:52.898Z,2.45
2022-12-13T03:46:56.350Z,2.50
2022-12-13T03:48:09.423Z,2.63
2022-12-13T03:49:17.298Z,2.60
2022-12-13T03:50:26.164Z,2.53
2022-12-13T03:51:30.363Z,2.65
2022-12-13T03:52:32.865Z,2.38
2022-12-13T03:53:43.451Z,2.55
2022-12-13T03:54:45.941Z,2.15
2022-12-13T03:55:50.001Z,2.38
2022-12-13T03:56:53.500Z,2.30
2022-12-13T03:57:56.021Z,2.33
2022-12-13T03:59:12.372Z,2.47
2022-12-13T04:00:22.551Z,2.42
2022-12-13T04:01:25.975Z,2.10
2022-12-13T04:02:31.224Z,2.13
2022-12-13T04:03:41.352Z,3.55
2022-12-13T04:04:46.030Z,3.53
2022-12-13T04:05:48.720Z,2.97
2022-12-13T04:06:52.146Z,3.08
2022-12-13T04:07:54.671Z,4.15
2022-12-13T04:09:11.385Z,3.30
2022-12-13T04:10:25.984Z,3.33
2022-12-13T04:11:47.735Z,2.92
2022-12-13T04:13:15.493Z,2.30
2022-12-13T04:14:25.385Z,2.90
2022-12-13T04:15:27.860Z,2.53
2022-12-13T04:16:31.335Z,2.30
2022-12-13T04:17:33.863Z,3.05
2022-12-13T04:18:37.372Z,3.33
2022-12-13T04:19:46.430Z,2.50
2022-12-13T04:20:51.423Z,3.05
2022-12-13T04:21:55.243Z,2.35
2022-12-13T04:22:57.862Z,2.70
2022-12-13T04:24:07.671Z,2.00
2022-12-13T04:25:16.647Z,2.40
2022-12-13T04:26:20.264Z,2.42
2022-12-13T04:27:22.762Z,2.40
2022-12-13T04:28:26.180Z,2.42
2022-12-13T04:29:34.211Z,2.42
2022-12-13T04:30:45.392Z,2.40
2022-12-13T04:31:55.438Z,2.50
2022-12-13T04:32:57.962Z,2.10
2022-12-13T04:34:01.380Z,2.80
2022-12-13T04:35:03.988Z,3.65
2022-12-13T04:36:15.413Z,2.38
2022-12-13T04:37:33.831Z,2.30
2022-12-13T04:38:37.306Z,2.50
2022-12-13T04:39:39.822Z,2.47
2022-12-13T04:40:51.271Z,2.33
2022-12-13T04:42:01.470Z,2.20
2022-12-13T04:43:11.375Z,2.10
2022-12-13T04:44:27.877Z,2.38
2022-12-13T04:45:34.006Z,2.50
2022-12-13T04:46:36.491Z,2.30
2022-12-13T04:47:46.421Z,2.22
2022-12-13T04:48:49.913Z,2.40
2022-12-13T04:49:59.550Z,2.65
2022-12-13T04:51:02.078Z,2.35
2022-12-13T04:52:06.765Z,2.10
2022-12-13T04:53:21.380Z,2.22
2022-12-13T04:54:25.054Z,2.40
2022-12-13T04:55:34.380Z,2.85
2022-12-13T04:56:37.954Z,2.15
2022-12-13T04:57:41.489Z,2.40
2022-12-13T04:58:50.402Z,2.20
2022-12-13T05:00:00.564Z,2.50
2022-12-13T05:01:09.596Z,2.45
2022-12-13T05:02:13.160Z,2.55
2022-12-13T05:03:27.950Z,2.40
2022-12-13T05:04:33.141Z,2.50
2022-12-13T05:05:43.399Z,2.42
2022-12-13T05:06:45.891Z,2.38
2022-12-13T05:07:50.729Z,2.60
2022-12-13T05:08:53.231Z,2.50
2022-12-13T05:09:56.670Z,2.85
2022-12-13T05:11:06.374Z,2.45
2022-12-13T05:12:22.865Z,2.70
2022-12-13T05:13:26.759Z,2.40
2022-12-13T05:14:30.194Z,2.30
2022-12-13T05:15:32.720Z,2.60
2022-12-13T05:16:42.423Z,2.25
2022-12-13T05:17:45.920Z,2.45
2022-12-13T05:18:49.376Z,2.53
2022-12-13T05:19:51.884Z,2.80
2022-12-13T05:20:55.732Z,2.35
2022-12-13T05:22:04.467Z,2.28
2022-12-13T05:23:09.882Z,2.35
2022-12-13T05:24:12.561Z,2.58
2022-12-13T05:25:16.167Z,2.85
2022-12-13T05:26:18.949Z,3.30
2022-12-13T05:27:29.402Z,2.83
2022-12-13T05:28:38.663Z,2.58
2022-12-13T05:29:42.861Z,2.70
2022-12-13T05:30:45.621Z,2.80
2022-12-13T05:31:49.091Z,2.72
2022-12-13T05:32:51.575Z,2.75
2022-12-13T05:34:02.390Z,3.20
2022-12-13T05:35:05.147Z,3.10
2022-12-13T05:36:08.850Z,3.10
2022-12-13T05:37:11.423Z,3.67
2022-12-13T05:38:16.162Z,3.13
2022-12-13T05:39:29.138Z,2.70
2022-12-13T05:40:33.911Z,2.88
2022-12-13T05:41:38.088Z,2.95
2022-12-13T05:42:40.560Z,3.20
2022-12-13T05:43:50.411Z,2.90
2022-12-13T05:44:52.879Z,2.72
2022-12-13T05:45:56.371Z,2.97
2022-12-13T05:47:01.902Z,2.95
2022-12-13T05:48:05.441Z,2.70
2022-12-13T05:49:15.422Z,3.00
2022-12-13T05:50:17.970Z,3.03
2022-12-13T05:51:21.380Z,3.20
2022-12-13T05:52:30.850Z,3.22
2022-12-13T05:53:36.210Z,2.90
2022-12-13T05:54:45.377Z,2.55
2022-12-13T05:55:48.791Z,3.35
2022-12-13T05:56:51.263Z,3.20
2022-12-13T05:57:54.691Z,3.53
2022-12-13T05:59:12.553Z,2.83
2022-12-13T06:00:30.991Z,2.92
2022-12-13T06:01:43.718Z,3.00
2022-12-13T06:02:48.116Z,2.78
2022-12-13T06:03:51.672Z,2.55
2022-12-13T06:04:55.122Z,2.90
2022-12-13T06:06:01.253Z,2.90
2022-12-13T06:07:11.412Z,2.88
2022-12-13T06:08:24.620Z,3.13
2022-12-13T06:09:30.762Z,3.40
2022-12-13T06:10:35.478Z,3.10
2022-12-13T06:11:45.433Z,3.45
2022-12-13T06:12:48.891Z,3.10
2022-12-13T06:13:52.454Z,3.55
2022-12-13T06:15:04.297Z,3.17
2022-12-13T06:16:31.419Z,3.55
2022-12-13T06:17:34.432Z,3.28
2022-12-13T06:18:38.041Z,3.40
2022-12-13T06:19:41.461Z,3.33
2022-12-13T06:20:44.002Z,3.40
2022-12-13T06:21:54.383Z,3.08
2022-12-13T06:22:57.770Z,3.17
2022-12-13T06:24:01.585Z,3.38
2022-12-13T06:25:06.610Z,3.20
2022-12-13T06:26:36.432Z,2.45
2022-12-13T06:27:39.945Z,3.42
2022-12-13T06:28:43.387Z,3.00
2022-12-13T06:29:45.851Z,2.78
2022-12-13T06:30:52.361Z,3.28
2022-12-13T06:32:03.578Z,3.00
2022-12-13T06:33:07.224Z,2.95
2022-12-13T06:34:14.432Z,3.08
2022-12-13T06:35:29.465Z,2.45
2022-12-13T06:36:33.867Z,2.50
2022-12-13T06:37:43.473Z,2.58
2022-12-13T06:38:46.907Z,2.88
2022-12-13T06:39:50.323Z,2.80
2022-12-13T06:40:54.133Z,2.97
2022-12-13T06:41:57.779Z,3.33
2022-12-13T06:43:07.399Z,3.10
2022-12-13T06:44:11.370Z,2.80
2022-12-13T06:45:13.830Z,3.25
2022-12-13T06:46:17.465Z,3.20
2022-12-13T06:47:31.345Z,3.42
2022-12-13T06:48:42.387Z,2.80
2022-12-13T06:49:53.514Z,3.17
2022-12-13T06:50:56.060Z,3.47
2022-12-13T06:51:59.491Z,2.95
2022-12-13T06:53:02.969Z,3.13
2022-12-13T06:54:12.417Z,3.42
2022-12-13T06:55:23.933Z,3.13
2022-12-13T06:56:29.109Z,2.90
2022-12-13T06:57:33.416Z,3.20
2022-12-13T06:58:43.424Z,3.10
2022-12-13T06:59:53.554Z,3.00
2022-12-13T07:01:02.706Z,3.50
2022-12-13T07:02:06.238Z,3.25
2022-12-13T07:03:27.659Z,2.90
2022-12-13T07:04:37.409Z,2.97
2022-12-13T07:05:43.313Z,2.78
2022-12-13T07:06:46.031Z,2.83
2022-12-13T07:07:49.602Z,2.72
2022-12-13T07:08:54.851Z,2.72
2022-12-13T07:10:05.395Z,3.10
2022-12-13T07:11:16.836Z,2.85
2022-12-13T07:12:21.990Z,2.80
2022-12-13T07:13:25.707Z,3.25
2022-12-13T07:14:40.743Z,3.13
2022-12-13T07:15:44.830Z,3.40
2022-12-13T07:16:47.456Z,3.22
2022-12-13T07:17:51.773Z,3.25
2022-12-13T07:19:01.242Z,3.08
2022-12-13T07:20:14.451Z,3.13
2022-12-13T07:21:21.398Z,2.83
2022-12-13T07:22:25.759Z,3.33
2022-12-13T07:23:29.110Z,3.13
2022-12-13T07:24:32.516Z,3.05
2022-12-13T07:25:42.373Z,3.58
2022-12-13T07:26:45.808Z,3.42
2022-12-13T07:27:49.856Z,4.68
2022-12-13T07:28:55.527Z,8.25
2022-12-13T07:30:05.403Z,5.10
2022-12-13T07:31:18.515Z,4.40
2022-12-13T07:32:21.922Z,3.50
2022-12-13T07:33:25.478Z,2.92
2022-12-13T07:34:34.378Z,3.10
2022-12-13T07:35:39.498Z,2.90
2022-12-13T07:36:49.409Z,3.10
2022-12-13T07:37:51.888Z,3.13
2022-12-13T07:38:55.933Z,3.40
2022-12-13T07:40:03.325Z,3.70
2022-12-13T07:41:07.806Z,3.28
2022-12-13T07:42:17.463Z,3.20
2022-12-13T07:43:22.714Z,3.35
2022-12-13T07:44:27.204Z,3.33
2022-12-13T07:45:30.627Z,3.00
2022-12-13T07:46:40.498Z,3.50
2022-12-13T07:47:43.966Z,3.38
2022-12-13T07:48:47.777Z,3.40
2022-12-13T07:49:51.203Z,3.13
2022-12-13T07:50:55.046Z,2.97
2022-12-13T07:52:04.410Z,3.40
2022-12-13T07:53:08.595Z,3.90
2022-12-13T07:54:12.154Z,3.22
2022-12-13T07:55:14.728Z,3.63
2022-12-13T07:56:18.190Z,3.40
2022-12-13T07:57:28.419Z,3.70
2022-12-13T07:58:33.479Z,3.55
2022-12-13T07:59:57.381Z,3.53
2022-12-13T08:01:01.805Z,3.45
2022-12-13T08:02:05.312Z,3.75
2022-12-13T08:03:24.234Z,3.58
2022-12-13T08:04:37.920Z,3.90
2022-12-13T08:05:42.711Z,3.40
2022-12-13T08:06:53.419Z,2.92
2022-12-13T08:07:56.951Z,3.08
2022-12-13T08:09:07.441Z,3.60
2022-12-13T08:10:10.963Z,2.40
2022-12-13T08:11:15.528Z,3.88
2022-12-13T08:12:22.430Z,3.33
2022-12-13T08:13:26.306Z,2.78
2022-12-13T08:14:37.390Z,3.13
2022-12-13T08:15:40.839Z,3.08
2022-12-13T08:16:44.607Z,3.30
2022-12-13T08:17:48.167Z,2.83
2022-12-13T08:18:50.663Z,2.67
2022-12-13T08:20:00.419Z,3.05
2022-12-13T08:21:14.039Z,2.78
2022-12-13T08:22:28.044Z,3.35
2022-12-13T08:23:39.291Z,3.33
2022-12-13T08:24:41.830Z,3.00
2022-12-13T08:25:52.461Z,3.50
2022-12-13T08:26:57.048Z,3.28
2022-12-13T08:28:02.185Z,2.85
2022-12-13T08:29:06.150Z,2.55
2022-12-13T08:30:21.970Z,2.55
2022-12-13T08:31:34.115Z,2.88
2022-12-13T08:32:37.651Z,3.10
2022-12-13T08:33:43.646Z,2.35
2022-12-13T08:34:52.415Z,3.30
2022-12-13T08:35:55.849Z,2.97
2022-12-13T08:37:02.566Z,3.45
2022-12-13T08:38:13.499Z,3.28
2022-12-13T08:39:26.487Z,3.20
2022-12-13T08:40:36.667Z,3.65
2022-12-13T08:41:40.575Z,3.35
2022-12-13T08:42:43.998Z,3.38
2022-12-13T08:43:47.492Z,3.13
2022-12-13T08:44:51.763Z,3.00
2022-12-13T08:46:03.422Z,3.20
2022-12-13T08:47:06.849Z,2.97
2022-12-13T08:48:11.050Z,3.42
2022-12-13T08:49:13.670Z,3.22
2022-12-13T08:50:17.414Z,3.40
2022-12-13T08:51:35.577Z,3.17
2022-12-13T08:52:46.393Z,2.92
2022-12-13T08:53:49.723Z,3.40
2022-12-13T08:54:53.264Z,3.20
2022-12-13T08:55:56.628Z,3.67
2022-12-13T08:57:00.361Z,3.00
2022-12-13T08:58:15.368Z,4.28
2022-12-13T08:59:39.362Z,5.47
2022-12-13T09:00:45.423Z,5.38
2022-12-13T09:01:53.952Z,6.55
2022-12-13T09:03:05.530Z,3.72
2022-12-13T09:04:13.799Z,3.25
2022-12-13T09:05:33.580Z,3.70
2022-12-13T09:06:38.258Z,3.63
2022-12-13T09:07:49.452Z,3.20
2022-12-13T09:08:54.749Z,3.75
2022-12-13T09:09:58.163Z,3.40
2022-12-13T09:11:10.470Z,3.80
2022-12-13T09:12:30.533Z,3.20
2022-12-13T09:13:43.792Z,3.05
2022-12-13T09:14:47.601Z,3.42
2022-12-13T09:16:01.603Z,3.85
2022-12-13T09:17:07.115Z,3.40
2022-12-13T09:18:23.786Z,3.40
2022-12-13T09:19:37.167Z,3.50
2022-12-13T09:20:42.714Z,3.65
2022-12-13T09:21:46.317Z,3.72
2022-12-13T09:23:01.568Z,3.72
2022-12-13T09:24:23.537Z,3.65
2022-12-13T09:25:28.184Z,3.85
2022-12-13T09:26:40.260Z,3.63
2022-12-13T09:27:43.953Z,3.35
2022-12-13T09:28:47.354Z,3.20
2022-12-13T09:29:57.369Z,3.47
2022-12-13T09:31:00.755Z,3.45
2022-12-13T09:32:04.297Z,3.35
2022-12-13T09:33:29.050Z,3.35
2022-12-13T09:34:39.501Z,3.17
2022-12-13T09:35:42.941Z,3.05
2022-12-13T09:36:46.529Z,3.03
2022-12-13T09:37:49.000Z,2.55
2022-12-13T09:38:54.175Z,2.85
2022-12-13T09:40:16.218Z,2.85
2022-12-13T09:41:31.508Z,2.80
2022-12-13T09:42:35.642Z,3.10
2022-12-13T09:43:46.453Z,3.13
2022-12-13T09:45:03.336Z,2.67
2022-12-13T09:46:22.596Z,3.30
2022-12-13T09:47:35.423Z,2.90
2022-12-13T09:48:40.438Z,2.70
2022-12-13T09:49:53.645Z,3.38
2022-12-13T09:51:18.404Z,3.10
2022-12-13T09:52:33.266Z,2.90
2022-12-13T09:53:37.513Z,2.55
2022-12-13T09:54:49.342Z,3.15
2022-12-13T09:56:10.852Z,3.00
2022-12-13T09:57:31.496Z,2.75
2022-12-13T09:58:37.432Z,3.67
2022-12-13T10:00:02.590Z,3.00
2022-12-13T10:01:13.530Z,2.83
2022-12-13T10:02:27.214Z,3.08
2022-12-13T10:03:30.875Z,3.20
2022-12-13T10:04:35.737Z,3.35
2022-12-13T10:05:40.512Z,2.80
2022-12-13T10:06:50.558Z,3.42
2022-12-13T10:07:56.718Z,3.22
2022-12-13T10:09:08.408Z,3.22
2022-12-13T10:10:14.167Z,3.00
2022-12-13T10:11:18.527Z,3.50
2022-12-13T10:12:28.397Z,3.80
2022-12-13T10:13:48.405Z,3.90
2022-12-13T10:15:06.401Z,5.82
2022-12-13T10:16:13.169Z,9.88
2022-12-13T10:17:26.398Z,4.65
2022-12-13T10:18:38.531Z,4.22
2022-12-13T10:19:51.401Z,3.05
2022-12-13T10:20:55.623Z,3.55
2022-12-13T10:22:06.400Z,3.90
2022-12-13T10:23:33.442Z,3.60
2022-12-13T10:24:56.443Z,3.08
2022-12-13T10:26:03.283Z,2.42
2022-12-13T10:27:14.177Z,3.22
2022-12-13T10:28:17.596Z,3.17
2022-12-13T10:29:21.093Z,3.60
2022-12-13T10:30:32.417Z,3.70
2022-12-13T10:31:40.824Z,3.80
2022-12-13T10:32:45.909Z,3.33
2022-12-13T10:33:55.539Z,3.58
2022-12-13T10:35:00.337Z,3.40
2022-12-13T10:36:15.449Z,3.63
2022-12-13T10:37:26.149Z,3.50
2022-12-13T10:38:32.144Z,4.20
2022-12-13T10:39:40.440Z,3.53
2022-12-13T10:40:45.781Z,3.30
2022-12-13T10:41:55.376Z,3.90
2022-12-13T10:43:20.454Z,3.42
2022-12-13T10:44:25.597Z,3.60
2022-12-13T10:45:29.109Z,3.38
2022-12-13T10:46:39.423Z,3.60
2022-12-13T10:47:44.638Z,4.10
2022-12-13T10:48:56.399Z,4.03
2022-12-13T10:50:01.570Z,3.50
2022-12-13T10:51:06.335Z,3.70
2022-12-13T10:52:31.528Z,3.38
2022-12-13T10:53:37.011Z,3.17
2022-12-13T10:54:48.532Z,3.45
2022-12-13T10:55:56.768Z,3.22
2022-12-13T10:57:05.978Z,3.30
2022-12-13T10:58:10.491Z,2.90
2022-12-13T10:59:31.509Z,3.40
2022-12-13T11:00:56.441Z,3.20
2022-12-13T11:02:01.829Z,3.45
2022-12-13T11:03:05.859Z,2.83
2022-12-13T11:04:27.188Z,3.58
2022-12-13T11:05:40.420Z,3.97
2022-12-13T11:06:44.617Z,3.67
2022-12-13T11:07:48.117Z,4.00
2022-12-13T11:08:51.504Z,3.30
2022-12-13T11:10:04.951Z,3.63
2022-12-13T11:11:10.068Z,5.13
2022-12-13T11:12:15.696Z,3.17
2022-12-13T11:13:26.126Z,2.95
2022-12-13T11:14:32.394Z,3.10
2022-12-13T11:15:44.421Z,3.55
2022-12-13T11:16:53.504Z,3.03
2022-12-13T11:17:58.791Z,3.05
2022-12-13T11:19:03.838Z,3.30
2022-12-13T11:20:09.242Z,3.42
2022-12-13T11:21:21.491Z,3.40
2022-12-13T11:22:26.565Z,3.80
2022-12-13T11:23:31.244Z,3.75
2022-12-13T11:24:36.002Z,4.00
2022-12-13T11:25:41.950Z,3.45
2022-12-13T11:26:54.447Z,3.63
2022-12-13T11:28:02.495Z,3.90
2022-12-13T11:29:17.136Z,2.97
2022-12-13T11:30:24.633Z,3.60
2022-12-13T11:31:31.412Z,3.30
2022-12-13T11:32:49.417Z,3.30
2022-12-13T11:34:03.409Z,3.78
2022-12-13T11:35:10.272Z,3.40
2022-12-13T11:36:23.393Z,3.53
2022-12-13T11:37:36.418Z,3.40
2022-12-13T11:38:58.079Z,3.72
2022-12-13T11:40:10.420Z,3.58
2022-12-13T11:41:31.611Z,3.72
2022-12-13T11:42:46.656Z,3.22
2022-12-13T11:43:52.599Z,3.75
2022-12-13T11:45:01.368Z,3.42
2022-12-13T11:46:08.146Z,4.15
2022-12-13T11:47:15.578Z,3.70
2022-12-13T11:48:29.085Z,3.60
2022-12-13T11:49:36.926Z,4.10
2022-12-13T11:50:41.598Z,4.35
2022-12-13T11:51:47.929Z,4.15
2022-12-13T11:52:53.623Z,3.75
2022-12-13T11:54:06.411Z,3.78
2022-12-13T11:55:14.998Z,3.58
2022-12-13T11:56:21.837Z,4.05
2022-12-13T11:57:32.435Z,4.50
2022-12-13T12:00:37.406Z,4.07
2022-12-13T12:01:43.539Z,6.75
2022-12-13T12:02:51.106Z,9.90
2022-12-13T12:04:02.557Z,12.65
2022-12-13T12:05:07.770Z,12.60
2022-12-13T12:06:14.693Z,13.75
2022-12-13T12:07:36.718Z,13.80
2022-12-13T12:08:43.039Z,6.10
2022-12-13T12:09:57.416Z,4.43
2022-12-13T12:11:05.450Z,2.30
2022-12-13T12:12:14.610Z,2.80
2022-12-13T12:13:28.024Z,1.52
2022-12-13T12:14:44.443Z,1.90
2022-12-13T12:15:56.560Z,2.45
2022-12-13T12:17:00.805Z,2.53
2022-12-13T12:18:04.321Z,3.28
2022-12-13T12:19:11.358Z,2.17
2022-12-13T12:20:23.288Z,1.77
2022-12-13T12:21:49.553Z,1.80
2022-12-13T12:23:02.010Z,1.58
2022-12-13T12:24:14.586Z,1.60
2022-12-13T12:25:30.405Z,1.98
2022-12-13T12:26:45.382Z,2.05
2022-12-13T12:27:52.941Z,1.60
2022-12-13T12:29:02.444Z,1.65
2022-12-13T12:30:10.516Z,1.35
2022-12-13T12:31:24.607Z,1.75
2022-12-13T12:32:34.016Z,1.70
2022-12-13T12:33:41.788Z,2.20
2022-12-13T12:34:49.163Z,2.20
2022-12-13T12:36:07.478Z,1.73
2022-12-13T12:37:15.966Z,2.00
2022-12-13T12:38:37.989Z,2.00
2022-12-13T12:39:54.525Z,2.00
2022-12-13T12:41:16.064Z,1.75
2022-12-13T12:42:56.851Z,1.77
2022-12-13T12:44:07.218Z,1.63
2022-12-13T12:45:54.654Z,2.22
2022-12-13T12:47:08.959Z,2.25
2022-12-13T12:48:58.549Z,1.65
2022-12-13T12:50:04.648Z,2.20
2022-12-13T12:51:10.150Z,2.22
2022-12-13T12:52:21.439Z,1.80
2022-12-13T12:53:29.161Z,2.28
2022-12-13T12:54:50.428Z,2.20
2022-12-13T12:55:58.948Z,2.08
2022-12-13T12:57:07.660Z,1.73
2022-12-13T12:58:16.677Z,1.85
2022-12-13T12:59:29.399Z,1.80
2022-12-13T13:00:50.419Z,1.85
2022-12-13T13:02:03.711Z,4.50
2022-12-13T13:03:18.797Z,2.97
2022-12-13T13:04:25.142Z,4.00
2022-12-13T13:05:36.375Z,7.70
2022-12-13T13:06:42.898Z,8.00
2022-12-13T13:07:53.812Z,3.55
2022-12-13T13:09:01.158Z,1.80
2022-12-13T13:10:16.467Z,1.90
2022-12-13T13:11:43.047Z,2.10
2022-12-13T13:12:48.193Z,2.00
2022-12-13T13:14:02.987Z,1.80
2022-12-13T13:15:21.584Z,2.17
2022-12-13T13:16:38.564Z,2.10
2022-12-13T13:17:48.891Z,2.13
2022-12-13T13:18:52.685Z,2.13
2022-12-13T13:20:05.409Z,2.30
2022-12-13T13:21:33.439Z,2.03
2022-12-13T13:22:43.340Z,2.40
2022-12-13T13:23:48.691Z,2.10
2022-12-13T13:25:00.222Z,2.10
2022-12-13T13:27:37.398Z,2.33
2022-12-13T13:28:40.986Z,2.10
2022-12-13T13:29:45.056Z,2.38
2022-12-13T13:31:03.761Z,2.92
2022-12-13T13:32:10.866Z,3.22
2022-12-13T13:33:44.429Z,3.78
2022-12-13T13:34:48.692Z,2.78
2022-12-13T13:35:53.649Z,2.50
2022-12-13T13:36:57.899Z,2.97
2022-12-13T13:38:08.921Z,3.30
2022-12-13T13:39:16.741Z,2.75
2022-12-13T13:40:31.841Z,2.90
2022-12-13T13:41:54.361Z,2.85
2022-12-13T13:43:27.248Z,4.40
2022-12-13T13:44:37.018Z,3.28
2022-12-13T13:45:59.110Z,3.67
2022-12-13T13:47:12.501Z,3.20
2022-12-13T13:48:30.383Z,3.40
2022-12-13T13:49:40.444Z,3.17
2022-12-13T13:50:59.656Z,3.58
2022-12-13T13:52:27.081Z,3.90
2022-12-13T13:53:47.698Z,3.88
2022-12-13T13:55:16.421Z,4.88
2022-12-13T13:56:33.892Z,4.20
2022-12-13T13:58:09.290Z,4.35
2022-12-13T13:59:25.549Z,3.80
2022-12-13T14:00:47.415Z,3.95
2022-12-13T14:02:29.542Z,4.47
2022-12-13T14:03:47.873Z,3.67
2022-12-13T14:05:11.094Z,3.35
2022-12-13T14:06:31.412Z,3.85
2022-12-13T14:07:55.759Z,3.13
2022-12-13T14:09:20.376Z,3.70
2022-12-13T14:10:42.905Z,3.20
2022-12-13T14:12:03.438Z,4.93
2022-12-13T14:13:32.545Z,4.82
2022-12-13T14:14:54.432Z,3.55
2022-12-13T14:16:23.255Z,4.03
2022-12-13T14:18:05.432Z,4.43
2022-12-13T14:19:20.489Z,4.43
2022-12-13T14:20:35.872Z,3.75
2022-12-13T14:21:49.466Z,3.63
2022-12-13T14:23:01.421Z,3.53
2022-12-13T14:24:11.230Z,4.13
2022-12-13T14:25:33.220Z,3.42
2022-12-13T14:26:52.560Z,3.97
2022-12-13T14:28:04.558Z,4.05
2022-12-13T14:29:19.454Z,3.50
2022-12-13T14:30:28.031Z,3.60
2022-12-13T14:31:49.962Z,3.10
2022-12-13T14:33:07.418Z,2.60
2022-12-13T14:34:26.414Z,3.03
2022-12-13T14:35:30.841Z,2.90
2022-12-13T14:36:35.760Z,3.05
2022-12-13T14:37:39.656Z,2.90
2022-12-13T14:38:42.205Z,2.90
2022-12-13T14:39:52.465Z,2.58
2022-12-13T14:40:58.185Z,2.45
2022-12-13T14:42:03.909Z,3.20
2022-12-13T14:43:07.408Z,2.45
2022-12-13T14:44:23.474Z,2.78
2022-12-13T14:45:29.521Z,2.60
2022-12-13T14:46:33.028Z,2.75
2022-12-13T14:47:43.123Z,2.85
2022-12-13T14:48:49.691Z,2.38
2022-12-13T14:50:02.460Z,2.95
2022-12-13T14:51:06.088Z,2.78
2022-12-13T14:52:11.248Z,2.53
2022-12-13T14:53:25.500Z,2.70
2022-12-13T14:54:37.450Z,2.55
2022-12-13T14:55:40.914Z,2.40
2022-12-13T14:56:55.670Z,2.90
2022-12-13T14:58:00.667Z,2.90
2022-12-13T14:59:04.933Z,2.80
2022-12-13T15:00:29.587Z,2.95
2022-12-13T15:01:40.815Z,3.00
2022-12-13T15:02:51.517Z,3.00
2022-12-13T15:03:55.495Z,3.35
2022-12-13T15:04:59.575Z,2.70
2022-12-13T15:06:11.493Z,2.88
2022-12-13T15:07:19.226Z,2.58
2022-12-13T15:08:21.825Z,2.60
2022-12-13T15:09:28.898Z,2.90
2022-12-13T15:10:36.235Z,2.88
2022-12-13T15:11:45.439Z,2.00
2022-12-13T15:12:56.578Z,2.40
2022-12-13T15:13:59.995Z,2.38
2022-12-13T15:15:04.897Z,2.83
2022-12-13T15:16:17.489Z,2.50
2022-12-13T15:17:34.443Z,2.67
2022-12-13T15:18:38.536Z,2.75
2022-12-13T15:19:48.907Z,2.53
2022-12-13T15:20:53.513Z,2.75
2022-12-13T15:22:04.441Z,3.13
2022-12-13T15:23:13.605Z,2.63
2022-12-13T15:24:17.123Z,2.80